EPPO/POZ METAR and TAF weather

Enter ICAO airport designator
Station Type Date Time Source
EPPO METAR 2018/07/20 14:30 UTC NOAA

EPPO 201430Z 27011KT CAVOK 26/09 Q1013


Station Type Date Time Source
EPPO Decoded METAR 2018/07/20 14:30 UTC NOAA

Poznan, Poland (EPPO) 52-25N 016-50E 92M
Jul 20, 2018 - 10:30 AM EDT / 2018.07.20 1430 UTC
Wind: from the W (270 degrees) at 13 MPH (11 KT):0
Visibility: greater than 7 mile(s):0
Temperature: 78 F (26 C)
Dew Point: 48 F (9 C)
Relative Humidity: 34%
Pressure (altimeter): 29.91 in. Hg (1013 hPa)
ob: EPPO 201430Z 27011KT CAVOK 26/09 Q1013
cycle: 14

Station Type Date Time Source
EPPO TAF 2018/07/20 12:33 UTC NOAA

TAF EPPO 201130Z 2012/2112 31010KT CAVOK
BECMG 2020/2022 VRB02KT


Example: see airport list